createdAt,value
2023-02-15T00:00:13.918Z,-2.85
2023-02-15T00:03:17.840Z,-2.93
2023-02-15T00:06:20.609Z,-3.07
2023-02-15T00:09:23.625Z,-3.09
2023-02-15T00:12:26.437Z,-3.13
2023-02-15T00:15:29.364Z,-3.17
2023-02-15T00:18:32.385Z,-3.19
2023-02-15T00:21:37.245Z,-3.26
2023-02-15T00:24:39.931Z,-3.32
2023-02-15T00:27:42.945Z,-3.36
2023-02-15T00:30:45.607Z,-3.47
2023-02-15T00:33:48.880Z,-3.35
2023-02-15T00:36:51.976Z,-3.29
2023-02-15T00:39:55.056Z,-3.12
2023-02-15T00:42:59.609Z,-2.90
2023-02-15T00:46:04.542Z,-2.87
2023-02-15T00:49:07.541Z,-2.80
2023-02-15T00:52:10.696Z,-2.79
2023-02-15T00:55:13.395Z,-2.82
2023-02-15T00:58:16.794Z,-2.87
2023-02-15T01:01:21.191Z,-2.96
2023-02-15T01:04:24.406Z,-3.06
2023-02-15T01:07:27.085Z,-3.12
2023-02-15T01:10:30.196Z,-3.25
2023-02-15T01:13:33.147Z,-3.24
2023-02-15T01:16:36.116Z,-3.21
2023-02-15T01:19:38.848Z,-3.24
2023-02-15T01:22:42.709Z,-3.33
2023-02-15T01:25:45.426Z,-3.48
2023-02-15T01:28:48.701Z,-3.52
2023-02-15T01:31:52.620Z,-3.63
2023-02-15T01:34:55.699Z,-3.50
2023-02-15T01:37:58.508Z,-3.55
2023-02-15T01:41:20.060Z,-3.68
2023-02-15T01:44:47.425Z,-3.64
2023-02-15T01:48:21.893Z,-3.63
2023-02-15T01:51:30.629Z,-3.67
2023-02-15T01:54:37.626Z,-3.74
2023-02-15T01:57:41.177Z,-3.68
2023-02-15T02:00:45.640Z,-3.70
2023-02-15T02:04:19.851Z,-3.70
2023-02-15T02:07:30.488Z,-3.74
2023-02-15T02:10:36.642Z,-3.80
2023-02-15T02:13:44.245Z,-3.82
2023-02-15T02:17:07.995Z,-3.88
2023-02-15T02:20:32.864Z,-3.82
2023-02-15T02:23:52.197Z,-3.85
2023-02-15T02:27:19.589Z,-3.92
2023-02-15T02:30:39.937Z,-3.97
2023-02-15T02:34:24.895Z,-3.98
2023-02-15T02:41:45.166Z,-4.06
2023-02-15T02:44:50.669Z,-4.15
2023-02-15T02:48:03.149Z,-4.12
2023-02-15T02:51:06.031Z,-4.26
2023-02-15T02:54:09.366Z,-4.03
2023-02-15T02:57:12.034Z,-4.07
2023-02-15T03:00:16.751Z,-3.96
2023-02-15T03:03:31.166Z,-4.01
2023-02-15T03:07:02.316Z,-4.07
2023-02-15T03:10:08.268Z,-4.04
2023-02-15T03:13:11.495Z,-4.06
2023-02-15T03:16:26.924Z,-4.05
2023-02-15T03:19:33.503Z,-4.03
2023-02-15T03:22:47.374Z,-3.95
2023-02-15T03:25:56.170Z,-3.88
2023-02-15T03:29:01.350Z,-3.82
2023-02-15T03:32:09.557Z,-3.76
2023-02-15T03:35:12.446Z,-3.64
2023-02-15T03:38:21.503Z,-3.67
2023-02-15T03:41:28.809Z,-3.60
2023-02-15T03:44:36.970Z,-3.60
2023-02-15T03:47:45.784Z,-3.64
2023-02-15T03:51:07.598Z,-3.64
2023-02-15T03:54:39.200Z,-3.66
2023-02-15T03:58:01.704Z,-3.65
2023-02-15T04:01:50.845Z,-3.71
2023-02-15T04:04:53.874Z,-3.83
2023-02-15T04:07:56.515Z,-3.94
2023-02-15T04:10:59.496Z,-4.02
2023-02-15T04:14:22.265Z,-4.11
2023-02-15T04:17:25.298Z,-4.18
2023-02-15T04:20:46.800Z,-4.13
2023-02-15T04:24:08.400Z,-4.07
2023-02-15T04:27:11.082Z,-3.99
2023-02-15T04:30:16.306Z,-4.15
2023-02-15T04:33:18.978Z,-4.26
2023-02-15T04:36:22.474Z,-4.30
2023-02-15T04:39:25.154Z,-4.48
2023-02-15T04:42:28.625Z,-4.59
2023-02-15T04:45:31.347Z,-4.57
2023-02-15T04:48:34.302Z,-4.66
2023-02-15T04:51:37.142Z,-4.79
2023-02-15T04:54:40.268Z,-4.73
2023-02-15T04:57:43.199Z,-4.74
2023-02-15T05:00:46.202Z,-4.81
2023-02-15T05:03:48.932Z,-4.89
2023-02-15T05:06:51.955Z,-4.88
2023-02-15T05:09:54.705Z,-4.84
2023-02-15T05:12:57.744Z,-4.86
2023-02-15T05:16:00.891Z,-4.79
2023-02-15T05:19:04.541Z,-4.83
2023-02-15T05:22:07.208Z,-4.73
2023-02-15T05:25:29.052Z,-4.72
2023-02-15T05:28:31.685Z,-4.72
2023-02-15T05:31:35.736Z,-4.72
2023-02-15T05:34:38.632Z,-4.72
2023-02-15T05:37:41.683Z,-4.67
2023-02-15T05:40:44.373Z,-4.63
2023-02-15T05:43:47.865Z,-4.63
2023-02-15T05:46:50.603Z,-4.59
2023-02-15T05:49:53.638Z,-4.52
2023-02-15T05:52:56.285Z,-4.48
2023-02-15T05:56:03.664Z,-4.39
2023-02-15T05:59:06.497Z,-4.30
2023-02-15T06:02:09.538Z,-4.32
2023-02-15T06:05:12.537Z,-4.26
2023-02-15T06:08:15.610Z,-4.25
2023-02-15T06:11:18.704Z,-4.26
2023-02-15T06:14:21.719Z,-4.14
2023-02-15T06:17:24.724Z,-4.11
2023-02-15T06:20:27.727Z,-4.16
2023-02-15T06:23:30.809Z,-3.98
2023-02-15T06:26:33.825Z,-3.85
2023-02-15T06:29:37.494Z,-3.77
2023-02-15T06:32:41.651Z,-3.49
2023-02-15T06:35:45.984Z,-0.91
2023-02-15T06:38:48.658Z,0.98
2023-02-15T06:41:51.865Z,2.34
2023-02-15T06:44:54.541Z,3.38
2023-02-15T06:47:57.547Z,4.56
2023-02-15T06:51:00.279Z,5.89
2023-02-15T06:54:03.400Z,6.62
2023-02-15T06:57:06.127Z,7.08
2023-02-15T07:00:09.718Z,7.35
2023-02-15T07:03:14.666Z,8.10
2023-02-15T07:06:17.799Z,9.21
2023-02-15T07:09:20.524Z,9.85
2023-02-15T07:12:42.404Z,10.89
2023-02-15T07:15:45.831Z,11.42
2023-02-15T07:18:49.040Z,12.41
2023-02-15T07:21:51.744Z,12.25
2023-02-15T07:24:55.820Z,13.61
2023-02-15T07:27:59.667Z,14.13
2023-02-15T07:31:06.652Z,14.68
2023-02-15T07:34:09.867Z,13.73
2023-02-15T07:37:13.093Z,12.77
2023-02-15T07:40:15.811Z,13.53
2023-02-15T07:43:18.828Z,13.32
2023-02-15T07:46:21.957Z,13.28
2023-02-15T07:49:25.210Z,13.09
2023-02-15T07:52:28.703Z,14.49
2023-02-15T07:55:32.029Z,14.46
2023-02-15T07:58:53.417Z,13.48
2023-02-15T08:01:57.576Z,14.22
2023-02-15T08:05:00.659Z,14.12
2023-02-15T08:08:03.394Z,13.87
2023-02-15T08:11:26.380Z,16.04
2023-02-15T08:14:29.104Z,15.58
2023-02-15T08:17:32.112Z,14.08
2023-02-15T08:20:34.740Z,14.86
2023-02-15T08:23:38.155Z,16.15
2023-02-15T08:26:42.434Z,15.67
2023-02-15T08:29:45.610Z,15.44
2023-02-15T08:32:48.347Z,15.53
2023-02-15T08:35:51.353Z,17.98
2023-02-15T08:38:54.276Z,17.75
2023-02-15T08:41:57.325Z,18.33
2023-02-15T08:44:59.982Z,16.46
2023-02-15T08:48:02.975Z,15.85
2023-02-15T08:51:14.722Z,10.53
2023-02-15T08:54:21.170Z,8.24
2023-02-15T08:57:23.927Z,6.98
2023-02-15T09:00:27.011Z,6.68
2023-02-15T09:03:30.111Z,6.35
2023-02-15T09:06:33.379Z,5.66
2023-02-15T09:09:36.369Z,5.28
2023-02-15T09:12:39.346Z,4.53
2023-02-15T09:15:41.985Z,4.47
2023-02-15T09:18:45.341Z,4.55
2023-02-15T09:21:48.147Z,4.72
2023-02-15T09:24:51.161Z,5.10
2023-02-15T09:27:53.994Z,5.50
2023-02-15T09:30:57.894Z,5.38
2023-02-15T09:34:02.476Z,5.36
2023-02-15T09:37:06.366Z,5.75
2023-02-15T09:40:09.459Z,5.76
2023-02-15T09:43:40.093Z,6.42
2023-02-15T09:47:03.456Z,6.49
2023-02-15T09:50:28.074Z,6.81
2023-02-15T09:54:06.603Z,6.69
2023-02-15T09:57:45.585Z,6.82
2023-02-15T10:00:57.328Z,7.22
2023-02-15T10:04:09.444Z,7.15
2023-02-15T10:07:14.997Z,6.43
2023-02-15T10:10:46.110Z,6.80
2023-02-15T10:14:00.649Z,7.06
2023-02-15T10:17:27.051Z,7.06
2023-02-15T10:20:43.389Z,6.99
2023-02-15T10:24:14.159Z,7.12
2023-02-15T10:27:22.083Z,7.09
2023-02-15T10:30:45.253Z,7.20
2023-02-15T10:33:56.520Z,6.79
2023-02-15T10:37:20.512Z,7.00
2023-02-15T10:40:48.894Z,6.66
2023-02-15T10:44:19.339Z,7.03
2023-02-15T10:47:34.426Z,6.90
2023-02-15T10:50:49.730Z,6.94
2023-02-15T10:54:20.563Z,6.34
2023-02-15T10:57:26.516Z,6.49
2023-02-15T11:00:40.177Z,6.43
2023-02-15T11:03:52.088Z,6.78
2023-02-15T11:07:00.141Z,6.93
2023-02-15T11:10:21.928Z,6.78
2023-02-15T11:13:29.439Z,7.25
2023-02-15T11:16:39.902Z,7.00
2023-02-15T11:20:13.279Z,7.66
2023-02-15T11:23:19.329Z,7.27
2023-02-15T11:26:34.382Z,6.70
2023-02-15T11:29:42.960Z,6.92
2023-02-15T11:32:53.232Z,6.62
2023-02-15T11:36:02.009Z,6.70
2023-02-15T11:39:15.142Z,6.78
2023-02-15T11:42:24.019Z,7.01
2023-02-15T11:45:33.062Z,7.11
2023-02-15T11:48:37.094Z,6.90
2023-02-15T11:51:39.759Z,6.65
2023-02-15T11:54:46.504Z,6.63
2023-02-15T11:58:09.925Z,6.58
2023-02-15T12:01:31.395Z,6.62
2023-02-15T12:04:41.685Z,6.36
2023-02-15T12:07:50.076Z,6.68
2023-02-15T12:11:09.048Z,6.80
2023-02-15T12:14:16.725Z,6.57
2023-02-15T12:17:22.813Z,6.48
2023-02-15T12:20:37.694Z,6.29
2023-02-15T12:23:53.838Z,6.30
2023-02-15T12:27:07.035Z,6.53
2023-02-15T12:30:18.862Z,6.51
2023-02-15T12:33:36.499Z,6.79
2023-02-15T12:36:55.490Z,6.70
2023-02-15T12:40:00.741Z,6.52
2023-02-15T12:43:09.610Z,6.56
2023-02-15T12:46:22.894Z,6.34
2023-02-15T12:49:27.243Z,6.53
2023-02-15T12:52:30.626Z,6.74
2023-02-15T12:55:33.780Z,6.73
2023-02-15T12:58:43.239Z,6.18
2023-02-15T13:01:47.016Z,6.17
2023-02-15T13:04:51.090Z,6.26
2023-02-15T13:08:10.508Z,6.29
2023-02-15T13:11:13.912Z,6.59
2023-02-15T13:14:16.882Z,6.26
2023-02-15T13:17:32.600Z,6.40
2023-02-15T13:20:37.577Z,6.47
2023-02-15T13:23:49.351Z,6.48
2023-02-15T13:27:13.097Z,6.54
2023-02-15T13:30:36.088Z,6.26
2023-02-15T13:33:39.430Z,6.38
2023-02-15T13:37:01.175Z,6.46
2023-02-15T13:40:25.760Z,6.30
2023-02-15T13:43:52.725Z,6.28
2023-02-15T13:47:27.638Z,6.28
2023-02-15T13:50:48.996Z,6.18
2023-02-15T13:54:08.840Z,6.23
2023-02-15T13:57:23.704Z,6.34
2023-02-15T14:00:50.429Z,6.28
2023-02-15T14:04:21.615Z,6.35
2023-02-15T14:07:42.497Z,6.11
2023-02-15T14:11:24.439Z,6.30
2023-02-15T14:15:04.017Z,6.23
2023-02-15T14:18:12.469Z,6.24
2023-02-15T14:21:20.737Z,6.27
2023-02-15T14:24:45.556Z,6.15
2023-02-15T14:28:15.362Z,6.08
2023-02-15T14:31:24.025Z,6.06
2023-02-15T14:34:43.236Z,5.76
2023-02-15T14:37:52.245Z,5.77
2023-02-15T14:41:19.079Z,5.84
2023-02-15T14:44:38.819Z,5.78
2023-02-15T14:47:47.937Z,5.70
2023-02-15T14:50:50.928Z,5.63
2023-02-15T14:53:53.750Z,5.54
2023-02-15T14:57:02.578Z,5.44
2023-02-15T15:00:37.997Z,5.37
2023-02-15T15:03:54.019Z,5.27
2023-02-15T15:07:15.215Z,5.04
2023-02-15T15:10:18.137Z,4.97
2023-02-15T15:13:33.485Z,4.81
2023-02-15T15:16:36.706Z,4.73
2023-02-15T15:19:51.920Z,4.69
2023-02-15T15:23:17.636Z,4.60
2023-02-15T15:26:28.306Z,4.47
2023-02-15T15:29:41.496Z,4.35
2023-02-15T15:33:10.323Z,4.25
2023-02-15T15:36:47.431Z,4.06
2023-02-15T15:40:37.684Z,3.86
2023-02-15T15:43:58.894Z,3.59
2023-02-15T15:47:33.042Z,3.31
2023-02-15T15:50:41.506Z,3.10
2023-02-15T15:53:49.486Z,2.81
2023-02-15T15:57:04.125Z,2.75
2023-02-15T16:00:47.808Z,2.54
2023-02-15T16:03:53.108Z,2.28
2023-02-15T16:06:55.820Z,2.10
2023-02-15T16:10:08.629Z,1.93
2023-02-15T16:13:15.469Z,1.79
2023-02-15T16:16:24.172Z,1.63
2023-02-15T16:19:36.129Z,1.45
2023-02-15T16:22:39.930Z,1.28
2023-02-15T16:25:55.552Z,1.07
2023-02-15T16:28:59.563Z,0.83
2023-02-15T16:32:16.628Z,0.71
2023-02-15T16:35:21.814Z,0.56
2023-02-15T16:38:50.842Z,0.41
2023-02-15T16:41:56.122Z,0.22
2023-02-15T16:45:17.719Z,0.04
2023-02-15T16:48:28.709Z,-0.14
2023-02-15T16:51:35.232Z,-0.34
2023-02-15T16:54:38.366Z,-0.48
2023-02-15T16:57:44.296Z,-0.60
2023-02-15T17:00:47.799Z,-0.69
2023-02-15T17:04:10.895Z,-0.80
2023-02-15T17:07:21.413Z,-0.88
2023-02-15T17:10:33.052Z,-1.01
2023-02-15T17:13:37.501Z,-1.08
2023-02-15T17:16:50.673Z,-1.24
2023-02-15T17:19:55.971Z,-1.35
2023-02-15T17:22:59.217Z,-1.41
2023-02-15T17:26:16.620Z,-1.53
2023-02-15T17:29:30.432Z,-1.59
2023-02-15T17:32:35.439Z,-1.63
2023-02-15T17:35:39.327Z,-1.76
2023-02-15T17:39:03.461Z,-1.89
2023-02-15T17:42:06.406Z,-1.96
2023-02-15T17:45:13.177Z,-2.11
2023-02-15T17:48:24.114Z,-2.13
2023-02-15T17:51:27.948Z,-2.21
2023-02-15T17:54:49.724Z,-2.28
2023-02-15T17:57:53.214Z,-2.33
2023-02-15T18:01:19.199Z,-2.36
2023-02-15T18:04:41.719Z,-2.45
2023-02-15T18:08:03.506Z,-2.51
2023-02-15T18:11:25.465Z,-2.58
2023-02-15T18:14:28.576Z,-2.65
2023-02-15T18:17:35.631Z,-2.70
2023-02-15T18:20:38.595Z,-2.82
2023-02-15T18:23:42.652Z,-2.88
2023-02-15T18:26:46.056Z,-2.82
2023-02-15T18:29:49.254Z,-2.83
2023-02-15T18:32:56.655Z,-2.86
2023-02-15T18:36:03.248Z,-2.85
2023-02-15T18:39:20.336Z,-2.89
2023-02-15T18:42:27.517Z,-2.95
2023-02-15T18:45:33.268Z,-3.01
2023-02-15T18:48:37.292Z,-3.02
2023-02-15T18:51:41.059Z,-3.08
2023-02-15T18:54:46.660Z,-3.13
2023-02-15T18:57:52.423Z,-3.26
2023-02-15T19:01:01.108Z,-3.18
2023-02-15T19:04:04.236Z,-3.25
2023-02-15T19:07:32.628Z,-3.19
2023-02-15T19:10:36.296Z,-3.19
2023-02-15T19:13:40.086Z,-3.23
2023-02-15T19:16:43.186Z,-3.29
2023-02-15T19:19:47.560Z,-3.30
2023-02-15T19:22:53.010Z,-3.33
2023-02-15T19:25:57.385Z,-3.29
2023-02-15T19:29:02.373Z,-3.29
2023-02-15T19:32:05.937Z,-3.32
2023-02-15T19:35:22.572Z,-3.37
2023-02-15T19:38:32.490Z,-3.44
2023-02-15T19:41:35.998Z,-3.51
2023-02-15T19:44:43.600Z,-3.54
2023-02-15T19:47:48.293Z,-3.48
2023-02-15T19:50:52.859Z,-3.48
2023-02-15T19:53:57.831Z,-3.55
2023-02-15T19:57:01.728Z,-3.68
2023-02-15T20:00:22.189Z,-3.71
2023-02-15T20:03:26.795Z,-3.69
2023-02-15T20:06:29.899Z,-3.73
2023-02-15T20:09:37.769Z,-3.81
2023-02-15T20:12:42.706Z,-3.76
2023-02-15T20:15:47.187Z,-3.81
2023-02-15T20:18:50.683Z,-3.74
2023-02-15T20:21:55.079Z,-3.79
2023-02-15T20:24:59.096Z,-3.82
2023-02-15T20:28:02.465Z,-3.86
2023-02-15T20:31:06.520Z,-3.89
2023-02-15T20:34:10.692Z,-3.90
2023-02-15T20:37:34.138Z,-3.93
2023-02-15T20:40:58.473Z,-3.96
2023-02-15T20:44:22.453Z,-3.97
2023-02-15T20:47:27.776Z,-3.96
2023-02-15T20:50:33.113Z,-4.05
2023-02-15T20:53:36.179Z,-3.96
2023-02-15T20:56:39.313Z,-4.00
2023-02-15T20:59:42.633Z,-4.12
2023-02-15T21:02:50.173Z,-4.04
2023-02-15T21:05:53.194Z,-3.99
2023-02-15T21:08:56.261Z,-4.06
2023-02-15T21:12:02.638Z,-4.03
2023-02-15T21:15:26.368Z,-4.03
2023-02-15T21:18:34.390Z,-4.04
2023-02-15T21:21:37.306Z,-4.09
2023-02-15T21:24:53.587Z,-4.17
2023-02-15T21:27:56.677Z,-4.19
2023-02-15T21:30:59.891Z,-4.21
2023-02-15T21:34:03.405Z,-4.24
2023-02-15T21:37:27.750Z,-4.27
2023-02-15T21:40:33.105Z,-4.24
2023-02-15T21:43:55.183Z,-4.33
2023-02-15T21:47:16.976Z,-4.27
2023-02-15T21:50:41.595Z,-4.30
2023-02-15T21:53:46.382Z,-4.31
2023-02-15T21:56:51.382Z,-4.30
2023-02-15T21:59:54.056Z,-4.41
2023-02-15T22:02:59.742Z,-4.37
2023-02-15T22:06:03.728Z,-4.48
2023-02-15T22:09:18.730Z,-4.42
2023-02-15T22:12:22.249Z,-4.51
2023-02-15T22:15:29.132Z,-4.38
2023-02-15T22:18:34.297Z,-4.46
2023-02-15T22:21:37.072Z,-4.43
2023-02-15T22:24:40.040Z,-4.52
2023-02-15T22:27:43.830Z,-4.53
2023-02-15T22:30:46.864Z,-4.48
2023-02-15T22:33:51.214Z,-4.54
2023-02-15T22:36:55.579Z,-4.49
2023-02-15T22:39:58.689Z,-4.45
2023-02-15T22:43:03.989Z,-4.49
2023-02-15T22:46:18.326Z,-4.56
2023-02-15T22:49:21.643Z,-4.61
2023-02-15T22:52:25.608Z,-4.66
2023-02-15T22:55:32.277Z,-4.72
2023-02-15T22:58:35.248Z,-4.64
2023-02-15T23:01:38.605Z,-4.78
2023-02-15T23:04:41.580Z,-4.81
2023-02-15T23:07:44.905Z,-4.75
2023-02-15T23:10:53.723Z,-4.75
2023-02-15T23:13:56.874Z,-4.84
2023-02-15T23:16:59.739Z,-4.85
2023-02-15T23:20:03.061Z,-4.84
2023-02-15T23:23:08.609Z,-4.80
2023-02-15T23:26:18.015Z,-4.81
2023-02-15T23:29:23.994Z,-4.83
2023-02-15T23:32:27.460Z,-4.85
2023-02-15T23:35:30.394Z,-4.77
2023-02-15T23:38:34.176Z,-4.84
2023-02-15T23:41:36.824Z,-4.78
2023-02-15T23:44:41.147Z,-4.78
2023-02-15T23:48:03.943Z,-4.77
2023-02-15T23:51:06.987Z,-4.77
2023-02-15T23:54:09.677Z,-4.72
2023-02-15T23:57:13.270Z,-4.71
